sensor_id;sensor_type;location;lat;lon;timestamp;P1;durP1;ratioP1;P2;durP2;ratioP2
291;SDS011;23311;48.776;9.162;2022-12-11T00:01:29;22.60;;;16.60;;
291;SDS011;23311;48.776;9.162;2022-12-11T00:03:57;19.47;;;14.90;;
291;SDS011;23311;48.776;9.162;2022-12-11T00:06:25;21.30;;;17.03;;
291;SDS011;23311;48.776;9.162;2022-12-11T00:08:55;20.47;;;15.13;;
291;SDS011;23311;48.776;9.162;2022-12-11T00:11:23;23.30;;;16.53;;
291;SDS011;23311;48.776;9.162;2022-12-11T00:13:51;23.77;;;18.07;;
291;SDS011;23311;48.776;9.162;2022-12-11T00:16:19;24.03;;;17.70;;
291;SDS011;23311;48.776;9.162;2022-12-11T00:18:52;24.07;;;17.03;;
291;SDS011;23311;48.776;9.162;2022-12-11T00:21:20;24.50;;;17.77;;
291;SDS011;23311;48.776;9.162;2022-12-11T00:23:48;26.83;;;19.83;;
291;SDS011;23311;48.776;9.162;2022-12-11T00:26:18;21.00;;;16.13;;
291;SDS011;23311;48.776;9.162;2022-12-11T00:28:46;26.00;;;19.47;;
291;SDS011;23311;48.776;9.162;2022-12-11T00:31:15;20.50;;;16.13;;
291;SDS011;23311;48.776;9.162;2022-12-11T00:33:44;26.20;;;18.60;;
291;SDS011;23311;48.776;9.162;2022-12-11T00:36:14;23.37;;;17.80;;
291;SDS011;23311;48.776;9.162;2022-12-11T00:38:43;21.63;;;15.80;;
291;SDS011;23311;48.776;9.162;2022-12-11T00:41:12;20.03;;;16.03;;
291;SDS011;23311;48.776;9.162;2022-12-11T00:43:41;21.43;;;16.23;;
291;SDS011;23311;48.776;9.162;2022-12-11T00:46:10;21.90;;;16.67;;
291;SDS011;23311;48.776;9.162;2022-12-11T00:48:38;21.67;;;15.67;;
291;SDS011;23311;48.776;9.162;2022-12-11T00:51:07;21.37;;;14.63;;
291;SDS011;23311;48.776;9.162;2022-12-11T00:53:35;20.73;;;15.67;;
291;SDS011;23311;48.776;9.162;2022-12-11T00:56:08;19.97;;;15.47;;
291;SDS011;23311;48.776;9.162;2022-12-11T00:58:37;23.63;;;16.10;;
291;SDS011;23311;48.776;9.162;2022-12-11T01:01:07;21.13;;;15.20;;
291;SDS011;23311;48.776;9.162;2022-12-11T01:03:36;20.60;;;16.70;;
291;SDS011;23311;48.776;9.162;2022-12-11T01:06:05;20.83;;;15.53;;
291;SDS011;23311;48.776;9.162;2022-12-11T01:08:34;17.57;;;14.00;;
291;SDS011;23311;48.776;9.162;2022-12-11T01:11:05;20.27;;;14.57;;
291;SDS011;23311;48.776;9.162;2022-12-11T01:13:33;21.50;;;15.57;;
291;SDS011;23311;48.776;9.162;2022-12-11T01:16:04;18.80;;;15.30;;
291;SDS011;23311;48.776;9.162;2022-12-11T01:18:35;19.60;;;15.23;;
291;SDS011;23311;48.776;9.162;2022-12-11T01:21:04;20.60;;;15.70;;
291;SDS011;23311;48.776;9.162;2022-12-11T01:23:33;19.60;;;14.60;;
291;SDS011;23311;48.776;9.162;2022-12-11T01:26:06;17.40;;;14.80;;
291;SDS011;23311;48.776;9.162;2022-12-11T01:28:35;18.10;;;14.23;;
291;SDS011;23311;48.776;9.162;2022-12-11T01:31:07;19.80;;;14.43;;
291;SDS011;23311;48.776;9.162;2022-12-11T01:33:36;18.53;;;14.50;;
291;SDS011;23311;48.776;9.162;2022-12-11T01:36:06;20.30;;;14.10;;
291;SDS011;23311;48.776;9.162;2022-12-11T01:38:35;19.00;;;14.47;;
291;SDS011;23311;48.776;9.162;2022-12-11T01:41:03;17.63;;;14.17;;
291;SDS011;23311;48.776;9.162;2022-12-11T01:43:31;20.00;;;14.50;;
291;SDS011;23311;48.776;9.162;2022-12-11T01:46:00;19.73;;;14.20;;
291;SDS011;23311;48.776;9.162;2022-12-11T01:48:29;20.27;;;15.43;;
291;SDS011;23311;48.776;9.162;2022-12-11T01:51:06;19.50;;;14.40;;
291;SDS011;23311;48.776;9.162;2022-12-11T01:53:35;23.50;;;15.17;;
291;SDS011;23311;48.776;9.162;2022-12-11T01:56:07;18.13;;;13.90;;
291;SDS011;23311;48.776;9.162;2022-12-11T01:58:37;18.30;;;14.13;;
291;SDS011;23311;48.776;9.162;2022-12-11T02:01:09;20.60;;;14.57;;
291;SDS011;23311;48.776;9.162;2022-12-11T02:03:42;16.20;;;13.20;;
291;SDS011;23311;48.776;9.162;2022-12-11T02:08:57;16.53;;;12.70;;
291;SDS011;23311;48.776;9.162;2022-12-11T02:11:26;14.77;;;12.07;;
291;SDS011;23311;48.776;9.162;2022-12-11T02:14:04;16.30;;;13.10;;
291;SDS011;23311;48.776;9.162;2022-12-11T02:16:37;17.03;;;13.33;;
291;SDS011;23311;48.776;9.162;2022-12-11T02:19:17;16.60;;;12.53;;
291;SDS011;23311;48.776;9.162;2022-12-11T02:21:57;13.97;;;11.53;;
291;SDS011;23311;48.776;9.162;2022-12-11T02:24:31;17.40;;;13.83;;
291;SDS011;23311;48.776;9.162;2022-12-11T02:27:18;14.40;;;10.90;;
291;SDS011;23311;48.776;9.162;2022-12-11T02:29:55;14.77;;;10.53;;
291;SDS011;23311;48.776;9.162;2022-12-11T02:32:29;16.70;;;12.00;;
291;SDS011;23311;48.776;9.162;2022-12-11T02:35:04;16.57;;;11.30;;
291;SDS011;23311;48.776;9.162;2022-12-11T02:37:39;17.10;;;13.10;;
291;SDS011;23311;48.776;9.162;2022-12-11T02:40:10;17.00;;;13.17;;
291;SDS011;23311;48.776;9.162;2022-12-11T02:42:42;15.97;;;13.60;;
291;SDS011;23311;48.776;9.162;2022-12-11T02:45:13;15.57;;;10.63;;
291;SDS011;23311;48.776;9.162;2022-12-11T02:47:42;13.40;;;10.63;;
291;SDS011;23311;48.776;9.162;2022-12-11T02:50:14;11.60;;;9.10;;
291;SDS011;23311;48.776;9.162;2022-12-11T02:52:44;13.33;;;10.37;;
291;SDS011;23311;48.776;9.162;2022-12-11T02:55:16;13.90;;;10.10;;
291;SDS011;23311;48.776;9.162;2022-12-11T02:57:46;12.77;;;9.87;;
291;SDS011;23311;48.776;9.162;2022-12-11T03:00:19;14.30;;;10.63;;
291;SDS011;23311;48.776;9.162;2022-12-11T03:02:47;14.63;;;11.07;;
291;SDS011;23311;48.776;9.162;2022-12-11T03:05:16;16.67;;;12.27;;
291;SDS011;23311;48.776;9.162;2022-12-11T03:07:44;14.87;;;11.47;;
291;SDS011;23311;48.776;9.162;2022-12-11T03:10:13;15.00;;;11.70;;
291;SDS011;23311;48.776;9.162;2022-12-11T03:12:44;15.20;;;11.33;;
291;SDS011;23311;48.776;9.162;2022-12-11T03:15:20;15.50;;;11.90;;
291;SDS011;23311;48.776;9.162;2022-12-11T03:17:57;13.80;;;11.07;;
291;SDS011;23311;48.776;9.162;2022-12-11T03:20:32;17.17;;;11.87;;
291;SDS011;23311;48.776;9.162;2022-12-11T03:23:07;16.97;;;13.10;;
291;SDS011;23311;48.776;9.162;2022-12-11T03:25:43;16.83;;;13.40;;
291;SDS011;23311;48.776;9.162;2022-12-11T03:28:19;17.80;;;12.67;;
291;SDS011;23311;48.776;9.162;2022-12-11T03:30:55;18.00;;;13.03;;
291;SDS011;23311;48.776;9.162;2022-12-11T03:33:25;17.77;;;11.90;;
291;SDS011;23311;48.776;9.162;2022-12-11T03:35:58;17.90;;;13.57;;
291;SDS011;23311;48.776;9.162;2022-12-11T03:38:30;17.90;;;13.83;;
291;SDS011;23311;48.776;9.162;2022-12-11T03:41:02;17.50;;;12.60;;
291;SDS011;23311;48.776;9.162;2022-12-11T03:43:33;15.23;;;11.73;;
291;SDS011;23311;48.776;9.162;2022-12-11T03:46:04;18.60;;;13.33;;
291;SDS011;23311;48.776;9.162;2022-12-11T03:48:36;17.40;;;13.03;;
291;SDS011;23311;48.776;9.162;2022-12-11T03:51:07;16.50;;;12.87;;
291;SDS011;23311;48.776;9.162;2022-12-11T03:53:35;18.23;;;13.37;;
291;SDS011;23311;48.776;9.162;2022-12-11T03:56:05;17.23;;;13.60;;
291;SDS011;23311;48.776;9.162;2022-12-11T03:58:35;17.27;;;12.80;;
291;SDS011;23311;48.776;9.162;2022-12-11T04:01:08;19.10;;;13.40;;
291;SDS011;23311;48.776;9.162;2022-12-11T04:03:37;16.07;;;12.40;;
291;SDS011;23311;48.776;9.162;2022-12-11T04:06:06;15.93;;;12.50;;
291;SDS011;23311;48.776;9.162;2022-12-11T04:08:34;16.73;;;12.70;;
291;SDS011;23311;48.776;9.162;2022-12-11T04:11:02;15.83;;;11.63;;
291;SDS011;23311;48.776;9.162;2022-12-11T04:13:48;17.90;;;12.23;;
291;SDS011;23311;48.776;9.162;2022-12-11T04:16:38;13.97;;;12.47;;
291;SDS011;23311;48.776;9.162;2022-12-11T04:19:06;14.90;;;11.93;;
291;SDS011;23311;48.776;9.162;2022-12-11T04:21:53;14.40;;;11.17;;
291;SDS011;23311;48.776;9.162;2022-12-11T04:24:45;15.03;;;10.40;;
291;SDS011;23311;48.776;9.162;2022-12-11T04:27:14;16.50;;;11.77;;
291;SDS011;23311;48.776;9.162;2022-12-11T04:30:04;15.63;;;11.57;;
291;SDS011;23311;48.776;9.162;2022-12-11T04:32:35;14.97;;;11.60;;
291;SDS011;23311;48.776;9.162;2022-12-11T04:35:04;17.47;;;13.23;;
291;SDS011;23311;48.776;9.162;2022-12-11T04:37:34;14.57;;;11.57;;
291;SDS011;23311;48.776;9.162;2022-12-11T04:40:03;16.90;;;12.23;;
291;SDS011;23311;48.776;9.162;2022-12-11T04:42:32;16.50;;;12.10;;
291;SDS011;23311;48.776;9.162;2022-12-11T04:45:01;15.27;;;11.40;;
291;SDS011;23311;48.776;9.162;2022-12-11T04:47:29;12.63;;;11.87;;
291;SDS011;23311;48.776;9.162;2022-12-11T04:49:58;14.67;;;11.00;;
291;SDS011;23311;48.776;9.162;2022-12-11T04:52:26;15.40;;;11.33;;
291;SDS011;23311;48.776;9.162;2022-12-11T04:54:54;12.83;;;11.33;;
291;SDS011;23311;48.776;9.162;2022-12-11T04:57:22;17.90;;;12.00;;
291;SDS011;23311;48.776;9.162;2022-12-11T04:59:50;16.10;;;11.77;;
291;SDS011;23311;48.776;9.162;2022-12-11T05:02:19;16.57;;;12.83;;
291;SDS011;23311;48.776;9.162;2022-12-11T05:04:47;16.17;;;11.90;;
291;SDS011;23311;48.776;9.162;2022-12-11T05:07:16;15.13;;;12.13;;
291;SDS011;23311;48.776;9.162;2022-12-11T05:09:45;15.33;;;12.23;;
291;SDS011;23311;48.776;9.162;2022-12-11T05:12:13;14.80;;;11.17;;
291;SDS011;23311;48.776;9.162;2022-12-11T05:14:41;14.10;;;11.47;;
291;SDS011;23311;48.776;9.162;2022-12-11T05:17:10;15.00;;;11.83;;
291;SDS011;23311;48.776;9.162;2022-12-11T05:19:38;14.97;;;12.27;;
291;SDS011;23311;48.776;9.162;2022-12-11T05:22:06;15.80;;;10.93;;
291;SDS011;23311;48.776;9.162;2022-12-11T05:24:35;16.20;;;11.17;;
291;SDS011;23311;48.776;9.162;2022-12-11T05:27:03;13.77;;;10.83;;
291;SDS011;23311;48.776;9.162;2022-12-11T05:29:32;14.93;;;10.87;;
291;SDS011;23311;48.776;9.162;2022-12-11T05:32:00;14.93;;;11.80;;
291;SDS011;23311;48.776;9.162;2022-12-11T05:34:29;16.67;;;12.80;;
291;SDS011;23311;48.776;9.162;2022-12-11T05:36:58;15.80;;;11.57;;
291;SDS011;23311;48.776;9.162;2022-12-11T05:39:26;15.43;;;11.50;;
291;SDS011;23311;48.776;9.162;2022-12-11T05:41:56;17.27;;;12.80;;
291;SDS011;23311;48.776;9.162;2022-12-11T05:44:24;16.80;;;11.10;;
291;SDS011;23311;48.776;9.162;2022-12-11T05:46:52;17.00;;;12.60;;
291;SDS011;23311;48.776;9.162;2022-12-11T05:49:20;15.57;;;10.70;;
291;SDS011;23311;48.776;9.162;2022-12-11T05:51:56;18.23;;;11.70;;
291;SDS011;23311;48.776;9.162;2022-12-11T05:54:24;13.97;;;10.50;;
291;SDS011;23311;48.776;9.162;2022-12-11T05:56:52;15.27;;;11.00;;
291;SDS011;23311;48.776;9.162;2022-12-11T05:59:21;16.33;;;12.07;;
291;SDS011;23311;48.776;9.162;2022-12-11T06:01:49;17.47;;;13.27;;
291;SDS011;23311;48.776;9.162;2022-12-11T06:04:19;20.80;;;14.70;;
291;SDS011;23311;48.776;9.162;2022-12-11T06:06:47;19.40;;;13.20;;
291;SDS011;23311;48.776;9.162;2022-12-11T06:09:15;17.87;;;15.00;;
291;SDS011;23311;48.776;9.162;2022-12-11T06:11:43;22.40;;;16.37;;
291;SDS011;23311;48.776;9.162;2022-12-11T06:14:12;23.93;;;16.80;;
291;SDS011;23311;48.776;9.162;2022-12-11T06:16:41;20.00;;;15.23;;
291;SDS011;23311;48.776;9.162;2022-12-11T06:19:11;22.77;;;15.80;;
291;SDS011;23311;48.776;9.162;2022-12-11T06:21:40;20.20;;;15.33;;
291;SDS011;23311;48.776;9.162;2022-12-11T06:24:11;23.27;;;16.00;;
291;SDS011;23311;48.776;9.162;2022-12-11T06:26:39;24.00;;;17.83;;
291;SDS011;23311;48.776;9.162;2022-12-11T06:29:07;24.90;;;18.00;;
291;SDS011;23311;48.776;9.162;2022-12-11T06:31:38;26.73;;;19.63;;
291;SDS011;23311;48.776;9.162;2022-12-11T06:34:08;24.30;;;17.17;;
291;SDS011;23311;48.776;9.162;2022-12-11T06:36:38;23.23;;;17.30;;
291;SDS011;23311;48.776;9.162;2022-12-11T06:39:06;26.20;;;19.53;;
291;SDS011;23311;48.776;9.162;2022-12-11T06:41:34;24.57;;;18.70;;
291;SDS011;23311;48.776;9.162;2022-12-11T06:44:03;23.90;;;17.70;;
291;SDS011;23311;48.776;9.162;2022-12-11T06:46:31;24.23;;;17.43;;
291;SDS011;23311;48.776;9.162;2022-12-11T06:48:59;24.33;;;17.20;;
291;SDS011;23311;48.776;9.162;2022-12-11T06:51:28;22.00;;;16.87;;
291;SDS011;23311;48.776;9.162;2022-12-11T06:53:58;25.33;;;18.53;;
291;SDS011;23311;48.776;9.162;2022-12-11T06:56:26;20.60;;;15.27;;
291;SDS011;23311;48.776;9.162;2022-12-11T06:58:54;24.10;;;17.10;;
291;SDS011;23311;48.776;9.162;2022-12-11T07:01:23;23.43;;;17.90;;
291;SDS011;23311;48.776;9.162;2022-12-11T07:03:52;23.87;;;17.73;;
291;SDS011;23311;48.776;9.162;2022-12-11T07:06:20;26.17;;;18.50;;
291;SDS011;23311;48.776;9.162;2022-12-11T07:08:50;20.33;;;15.80;;
291;SDS011;23311;48.776;9.162;2022-12-11T07:11:19;24.17;;;17.10;;
291;SDS011;23311;48.776;9.162;2022-12-11T07:13:47;24.80;;;15.60;;
291;SDS011;23311;48.776;9.162;2022-12-11T07:16:16;22.10;;;16.27;;
291;SDS011;23311;48.776;9.162;2022-12-11T07:18:45;27.27;;;17.80;;
291;SDS011;23311;48.776;9.162;2022-12-11T07:21:20;23.00;;;16.40;;
291;SDS011;23311;48.776;9.162;2022-12-11T07:23:48;22.87;;;16.80;;
291;SDS011;23311;48.776;9.162;2022-12-11T07:26:19;25.27;;;17.37;;
291;SDS011;23311;48.776;9.162;2022-12-11T07:28:48;21.70;;;15.60;;
291;SDS011;23311;48.776;9.162;2022-12-11T07:31:17;20.73;;;15.43;;
291;SDS011;23311;48.776;9.162;2022-12-11T07:33:51;18.37;;;15.00;;
291;SDS011;23311;48.776;9.162;2022-12-11T07:36:19;20.83;;;15.90;;
291;SDS011;23311;48.776;9.162;2022-12-11T07:38:47;20.80;;;14.50;;
291;SDS011;23311;48.776;9.162;2022-12-11T07:41:17;22.33;;;15.90;;
291;SDS011;23311;48.776;9.162;2022-12-11T07:43:46;20.53;;;14.40;;
291;SDS011;23311;48.776;9.162;2022-12-11T07:46:15;21.07;;;15.00;;
291;SDS011;23311;48.776;9.162;2022-12-11T07:48:45;20.10;;;14.43;;
291;SDS011;23311;48.776;9.162;2022-12-11T07:51:14;17.57;;;13.40;;
291;SDS011;23311;48.776;9.162;2022-12-11T07:53:45;19.00;;;13.50;;
291;SDS011;23311;48.776;9.162;2022-12-11T07:56:17;19.23;;;13.10;;
291;SDS011;23311;48.776;9.162;2022-12-11T07:58:45;18.10;;;12.77;;
291;SDS011;23311;48.776;9.162;2022-12-11T08:01:15;14.93;;;11.90;;
291;SDS011;23311;48.776;9.162;2022-12-11T08:03:45;19.00;;;12.80;;
291;SDS011;23311;48.776;9.162;2022-12-11T08:06:13;17.43;;;12.50;;
291;SDS011;23311;48.776;9.162;2022-12-11T08:08:42;16.87;;;11.67;;
291;SDS011;23311;48.776;9.162;2022-12-11T08:11:10;15.73;;;12.23;;
291;SDS011;23311;48.776;9.162;2022-12-11T08:13:41;14.03;;;11.37;;
291;SDS011;23311;48.776;9.162;2022-12-11T08:16:11;15.20;;;10.77;;
291;SDS011;23311;48.776;9.162;2022-12-11T08:18:40;15.20;;;11.03;;
291;SDS011;23311;48.776;9.162;2022-12-11T08:21:10;17.60;;;11.70;;
291;SDS011;23311;48.776;9.162;2022-12-11T08:23:39;16.50;;;11.93;;
291;SDS011;23311;48.776;9.162;2022-12-11T08:26:08;14.80;;;11.90;;
291;SDS011;23311;48.776;9.162;2022-12-11T08:28:37;13.17;;;11.10;;
291;SDS011;23311;48.776;9.162;2022-12-11T08:31:08;14.93;;;11.20;;
291;SDS011;23311;48.776;9.162;2022-12-11T08:33:38;18.47;;;12.30;;
291;SDS011;23311;48.776;9.162;2022-12-11T08:36:08;17.30;;;13.57;;
291;SDS011;23311;48.776;9.162;2022-12-11T08:38:37;15.53;;;11.40;;
291;SDS011;23311;48.776;9.162;2022-12-11T08:41:08;17.30;;;12.73;;
291;SDS011;23311;48.776;9.162;2022-12-11T08:43:37;18.90;;;13.57;;
291;SDS011;23311;48.776;9.162;2022-12-11T08:46:07;17.27;;;12.83;;
291;SDS011;23311;48.776;9.162;2022-12-11T08:48:37;16.40;;;12.23;;
291;SDS011;23311;48.776;9.162;2022-12-11T08:51:07;17.70;;;12.20;;
291;SDS011;23311;48.776;9.162;2022-12-11T08:53:38;16.17;;;11.90;;
291;SDS011;23311;48.776;9.162;2022-12-11T08:56:07;16.27;;;11.80;;
291;SDS011;23311;48.776;9.162;2022-12-11T08:58:37;18.33;;;12.40;;
291;SDS011;23311;48.776;9.162;2022-12-11T09:01:05;18.10;;;12.93;;
291;SDS011;23311;48.776;9.162;2022-12-11T09:03:36;19.03;;;13.93;;
291;SDS011;23311;48.776;9.162;2022-12-11T09:06:06;15.23;;;12.00;;
291;SDS011;23311;48.776;9.162;2022-12-11T09:08:39;20.77;;;14.30;;
291;SDS011;23311;48.776;9.162;2022-12-11T09:11:17;18.17;;;12.40;;
291;SDS011;23311;48.776;9.162;2022-12-11T09:13:46;17.50;;;13.73;;
291;SDS011;23311;48.776;9.162;2022-12-11T09:16:18;19.63;;;12.90;;
291;SDS011;23311;48.776;9.162;2022-12-11T09:18:47;17.10;;;13.23;;
291;SDS011;23311;48.776;9.162;2022-12-11T09:21:18;18.37;;;12.97;;
291;SDS011;23311;48.776;9.162;2022-12-11T09:23:47;15.87;;;12.90;;
291;SDS011;23311;48.776;9.162;2022-12-11T09:26:18;18.80;;;13.93;;
291;SDS011;23311;48.776;9.162;2022-12-11T09:28:46;17.67;;;12.20;;
291;SDS011;23311;48.776;9.162;2022-12-11T09:31:19;17.80;;;11.80;;
291;SDS011;23311;48.776;9.162;2022-12-11T09:33:50;15.60;;;12.10;;
291;SDS011;23311;48.776;9.162;2022-12-11T09:36:20;16.37;;;11.40;;
291;SDS011;23311;48.776;9.162;2022-12-11T09:38:48;15.40;;;11.60;;
291;SDS011;23311;48.776;9.162;2022-12-11T09:41:36;15.27;;;12.13;;
291;SDS011;23311;48.776;9.162;2022-12-11T09:44:18;18.97;;;14.00;;
291;SDS011;23311;48.776;9.162;2022-12-11T09:47:14;16.10;;;11.47;;
291;SDS011;23311;48.776;9.162;2022-12-11T09:49:47;16.93;;;11.73;;
291;SDS011;23311;48.776;9.162;2022-12-11T09:52:22;15.50;;;10.63;;
291;SDS011;23311;48.776;9.162;2022-12-11T09:55:02;14.27;;;10.10;;
291;SDS011;23311;48.776;9.162;2022-12-11T09:57:44;15.20;;;9.67;;
291;SDS011;23311;48.776;9.162;2022-12-11T10:00:19;12.40;;;9.43;;
291;SDS011;23311;48.776;9.162;2022-12-11T10:03:03;14.57;;;9.80;;
291;SDS011;23311;48.776;9.162;2022-12-11T10:05:51;14.33;;;9.57;;
291;SDS011;23311;48.776;9.162;2022-12-11T10:08:31;16.53;;;10.40;;
291;SDS011;23311;48.776;9.162;2022-12-11T10:11:18;14.80;;;10.57;;
291;SDS011;23311;48.776;9.162;2022-12-11T10:14:00;14.70;;;9.53;;
291;SDS011;23311;48.776;9.162;2022-12-11T10:16:34;16.17;;;9.80;;
291;SDS011;23311;48.776;9.162;2022-12-11T10:19:09;15.13;;;10.57;;
291;SDS011;23311;48.776;9.162;2022-12-11T10:21:43;12.17;;;10.60;;
291;SDS011;23311;48.776;9.162;2022-12-11T10:24:15;15.97;;;10.40;;
291;SDS011;23311;48.776;9.162;2022-12-11T10:27:12;17.60;;;10.20;;
291;SDS011;23311;48.776;9.162;2022-12-11T10:29:44;11.70;;;10.00;;
291;SDS011;23311;48.776;9.162;2022-12-11T10:32:20;13.20;;;9.67;;
291;SDS011;23311;48.776;9.162;2022-12-11T10:34:53;13.90;;;10.43;;
291;SDS011;23311;48.776;9.162;2022-12-11T10:37:26;14.07;;;9.53;;
291;SDS011;23311;48.776;9.162;2022-12-11T10:39:54;16.90;;;11.00;;
291;SDS011;23311;48.776;9.162;2022-12-11T10:42:22;13.77;;;10.20;;
291;SDS011;23311;48.776;9.162;2022-12-11T10:44:54;14.17;;;10.30;;
291;SDS011;23311;48.776;9.162;2022-12-11T10:47:23;13.70;;;10.47;;
291;SDS011;23311;48.776;9.162;2022-12-11T10:49:53;17.00;;;11.03;;
291;SDS011;23311;48.776;9.162;2022-12-11T10:52:26;14.07;;;10.37;;
291;SDS011;23311;48.776;9.162;2022-12-11T10:55:01;13.40;;;9.90;;
291;SDS011;23311;48.776;9.162;2022-12-11T10:57:31;17.43;;;12.40;;
291;SDS011;23311;48.776;9.162;2022-12-11T11:00:01;17.83;;;12.20;;
291;SDS011;23311;48.776;9.162;2022-12-11T11:02:33;16.67;;;11.73;;
291;SDS011;23311;48.776;9.162;2022-12-11T11:05:12;18.40;;;14.13;;
291;SDS011;23311;48.776;9.162;2022-12-11T11:07:44;18.40;;;11.93;;
291;SDS011;23311;48.776;9.162;2022-12-11T11:10:14;18.80;;;14.37;;
291;SDS011;23311;48.776;9.162;2022-12-11T11:12:44;22.10;;;13.80;;
291;SDS011;23311;48.776;9.162;2022-12-11T11:15:14;18.73;;;14.77;;
291;SDS011;23311;48.776;9.162;2022-12-11T11:17:45;18.50;;;14.17;;
291;SDS011;23311;48.776;9.162;2022-12-11T11:20:23;25.93;;;15.30;;
291;SDS011;23311;48.776;9.162;2022-12-11T11:22:53;19.23;;;13.60;;
291;SDS011;23311;48.776;9.162;2022-12-11T11:25:26;19.20;;;13.90;;
291;SDS011;23311;48.776;9.162;2022-12-11T11:27:59;22.37;;;14.30;;
291;SDS011;23311;48.776;9.162;2022-12-11T11:30:30;26.17;;;18.20;;
291;SDS011;23311;48.776;9.162;2022-12-11T11:33:02;19.80;;;15.13;;
291;SDS011;23311;48.776;9.162;2022-12-11T11:35:33;17.53;;;12.67;;
291;SDS011;23311;48.776;9.162;2022-12-11T11:38:08;19.87;;;13.13;;
291;SDS011;23311;48.776;9.162;2022-12-11T11:40:44;16.47;;;12.53;;
291;SDS011;23311;48.776;9.162;2022-12-11T11:43:18;18.07;;;13.90;;
291;SDS011;23311;48.776;9.162;2022-12-11T11:45:58;20.33;;;14.90;;
291;SDS011;23311;48.776;9.162;2022-12-11T11:48:35;18.97;;;14.03;;
291;SDS011;23311;48.776;9.162;2022-12-11T11:51:15;20.37;;;14.97;;
291;SDS011;23311;48.776;9.162;2022-12-11T11:53:49;18.47;;;14.20;;
291;SDS011;23311;48.776;9.162;2022-12-11T11:56:21;19.87;;;14.40;;
291;SDS011;23311;48.776;9.162;2022-12-11T11:58:57;14.40;;;12.33;;
291;SDS011;23311;48.776;9.162;2022-12-11T12:01:29;18.30;;;13.60;;
291;SDS011;23311;48.776;9.162;2022-12-11T12:03:57;17.80;;;12.87;;
291;SDS011;23311;48.776;9.162;2022-12-11T12:06:32;21.67;;;14.60;;
291;SDS011;23311;48.776;9.162;2022-12-11T12:09:18;17.37;;;14.20;;
291;SDS011;23311;48.776;9.162;2022-12-11T12:11:59;21.67;;;14.60;;
291;SDS011;23311;48.776;9.162;2022-12-11T12:14:37;16.73;;;13.20;;
291;SDS011;23311;48.776;9.162;2022-12-11T12:17:20;17.03;;;13.70;;
291;SDS011;23311;48.776;9.162;2022-12-11T12:19:58;18.27;;;13.07;;
291;SDS011;23311;48.776;9.162;2022-12-11T12:22:46;18.80;;;15.50;;
291;SDS011;23311;48.776;9.162;2022-12-11T12:25:25;19.47;;;15.60;;
291;SDS011;23311;48.776;9.162;2022-12-11T12:28:04;21.20;;;15.87;;
291;SDS011;23311;48.776;9.162;2022-12-11T12:30:46;22.63;;;16.23;;
291;SDS011;23311;48.776;9.162;2022-12-11T12:33:21;18.93;;;15.10;;
291;SDS011;23311;48.776;9.162;2022-12-11T12:36:00;22.37;;;14.80;;
291;SDS011;23311;48.776;9.162;2022-12-11T12:38:36;21.00;;;14.73;;
291;SDS011;23311;48.776;9.162;2022-12-11T12:41:15;20.20;;;15.37;;
291;SDS011;23311;48.776;9.162;2022-12-11T12:43:52;17.10;;;12.80;;
291;SDS011;23311;48.776;9.162;2022-12-11T12:46:30;18.23;;;13.70;;
291;SDS011;23311;48.776;9.162;2022-12-11T12:49:09;18.13;;;14.33;;
291;SDS011;23311;48.776;9.162;2022-12-11T12:51:42;19.83;;;15.30;;
291;SDS011;23311;48.776;9.162;2022-12-11T12:54:24;19.90;;;13.67;;
291;SDS011;23311;48.776;9.162;2022-12-11T12:56:55;20.20;;;15.10;;
291;SDS011;23311;48.776;9.162;2022-12-11T12:59:26;22.60;;;16.50;;
291;SDS011;23311;48.776;9.162;2022-12-11T13:01:55;23.77;;;16.07;;
291;SDS011;23311;48.776;9.162;2022-12-11T13:04:27;21.40;;;16.13;;
291;SDS011;23311;48.776;9.162;2022-12-11T13:07:24;23.57;;;16.17;;
291;SDS011;23311;48.776;9.162;2022-12-11T13:10:00;23.80;;;17.00;;
291;SDS011;23311;48.776;9.162;2022-12-11T13:12:41;23.30;;;16.80;;
291;SDS011;23311;48.776;9.162;2022-12-11T13:18:29;20.63;;;15.07;;
291;SDS011;23311;48.776;9.162;2022-12-11T13:21:00;21.60;;;16.17;;
291;SDS011;23311;48.776;9.162;2022-12-11T13:23:30;27.80;;;16.00;;
291;SDS011;23311;48.776;9.162;2022-12-11T13:26:01;22.23;;;15.43;;
291;SDS011;23311;48.776;9.162;2022-12-11T13:28:32;24.17;;;16.40;;
291;SDS011;23311;48.776;9.162;2022-12-11T13:34:14;23.47;;;17.57;;
291;SDS011;23311;48.776;9.162;2022-12-11T13:36:45;23.70;;;16.70;;
291;SDS011;23311;48.776;9.162;2022-12-11T13:39:17;22.03;;;16.23;;
291;SDS011;23311;48.776;9.162;2022-12-11T13:41:50;22.10;;;16.63;;
291;SDS011;23311;48.776;9.162;2022-12-11T13:44:25;23.67;;;17.63;;
291;SDS011;23311;48.776;9.162;2022-12-11T13:46:54;23.77;;;17.70;;
291;SDS011;23311;48.776;9.162;2022-12-11T13:49:26;23.83;;;17.40;;
291;SDS011;23311;48.776;9.162;2022-12-11T13:52:14;28.13;;;17.10;;
291;SDS011;23311;48.776;9.162;2022-12-11T13:54:56;25.57;;;19.60;;
291;SDS011;23311;48.776;9.162;2022-12-11T13:57:51;27.00;;;19.37;;
291;SDS011;23311;48.776;9.162;2022-12-11T14:01:14;24.80;;;17.67;;
291;SDS011;23311;48.776;9.162;2022-12-11T14:03:59;25.80;;;19.10;;
291;SDS011;23311;48.776;9.162;2022-12-11T14:09:59;22.33;;;17.03;;
291;SDS011;23311;48.776;9.162;2022-12-11T14:12:42;25.40;;;17.37;;
291;SDS011;23311;48.776;9.162;2022-12-11T14:18:46;25.67;;;19.67;;
291;SDS011;23311;48.776;9.162;2022-12-11T14:21:39;24.13;;;18.13;;
291;SDS011;23311;48.776;9.162;2022-12-11T14:24:35;29.03;;;18.97;;
291;SDS011;23311;48.776;9.162;2022-12-11T14:27:32;28.67;;;18.97;;
291;SDS011;23311;48.776;9.162;2022-12-11T14:36:26;26.60;;;18.93;;
291;SDS011;23311;48.776;9.162;2022-12-11T14:38:58;29.13;;;18.87;;
291;SDS011;23311;48.776;9.162;2022-12-11T14:41:32;27.20;;;19.13;;
291;SDS011;23311;48.776;9.162;2022-12-11T14:44:10;28.30;;;19.37;;
291;SDS011;23311;48.776;9.162;2022-12-11T14:46:42;30.20;;;19.00;;
291;SDS011;23311;48.776;9.162;2022-12-11T14:49:25;27.67;;;20.70;;
291;SDS011;23311;48.776;9.162;2022-12-11T14:52:03;26.00;;;18.43;;
291;SDS011;23311;48.776;9.162;2022-12-11T14:54:32;26.47;;;18.23;;
291;SDS011;23311;48.776;9.162;2022-12-11T14:57:05;33.00;;;20.83;;
291;SDS011;23311;48.776;9.162;2022-12-11T14:59:36;27.90;;;18.93;;
291;SDS011;23311;48.776;9.162;2022-12-11T15:02:20;29.07;;;19.17;;
291;SDS011;23311;48.776;9.162;2022-12-11T15:05:00;31.10;;;20.63;;
291;SDS011;23311;48.776;9.162;2022-12-11T15:07:42;25.90;;;17.60;;
291;SDS011;23311;48.776;9.162;2022-12-11T15:10:27;28.80;;;19.73;;
291;SDS011;23311;48.776;9.162;2022-12-11T15:13:04;22.70;;;17.03;;
291;SDS011;23311;48.776;9.162;2022-12-11T15:15:36;28.10;;;18.30;;
291;SDS011;23311;48.776;9.162;2022-12-11T15:18:16;26.47;;;17.73;;
291;SDS011;23311;48.776;9.162;2022-12-11T15:20:50;25.13;;;17.47;;
291;SDS011;23311;48.776;9.162;2022-12-11T15:23:20;29.20;;;18.53;;
291;SDS011;23311;48.776;9.162;2022-12-11T15:25:49;25.23;;;18.00;;
291;SDS011;23311;48.776;9.162;2022-12-11T15:28:24;27.43;;;17.63;;
291;SDS011;23311;48.776;9.162;2022-12-11T15:30:55;26.53;;;17.60;;
291;SDS011;23311;48.776;9.162;2022-12-11T15:33:25;28.07;;;21.07;;
291;SDS011;23311;48.776;9.162;2022-12-11T15:36:02;30.30;;;18.83;;
291;SDS011;23311;48.776;9.162;2022-12-11T15:38:33;29.73;;;19.40;;
291;SDS011;23311;48.776;9.162;2022-12-11T15:41:03;27.47;;;19.03;;
291;SDS011;23311;48.776;9.162;2022-12-11T15:43:33;28.80;;;19.63;;